createdAt,value
2023-04-24T00:01:40.622Z,34.97
2023-04-24T00:04:08.390Z,35.49
2023-04-24T00:06:35.659Z,36.25
2023-04-24T00:09:03.226Z,36.97
2023-04-24T00:11:30.103Z,37.23
2023-04-24T00:13:57.629Z,36.85
2023-04-24T00:16:24.717Z,36.19
2023-04-24T00:18:53.815Z,35.91
2023-04-24T00:21:21.641Z,35.65
2023-04-24T00:23:48.946Z,35.48
2023-04-24T00:26:16.045Z,35.57
2023-04-24T00:28:43.199Z,35.62
2023-04-24T00:31:10.145Z,35.72
2023-04-24T00:33:37.177Z,35.61
2023-04-24T00:36:04.571Z,35.61
2023-04-24T00:38:31.600Z,35.56
2023-04-24T00:40:58.485Z,35.59
2023-04-24T00:43:25.907Z,35.56
2023-04-24T00:45:54.494Z,35.64
2023-04-24T00:48:21.715Z,35.78
2023-04-24T00:50:48.682Z,35.77
2023-04-24T00:53:16.159Z,35.72
2023-04-24T00:55:43.297Z,35.68
2023-04-24T00:58:10.242Z,35.84
2023-04-24T01:00:37.126Z,35.72
2023-04-24T01:03:05.617Z,35.41
2023-04-24T01:05:34.930Z,35.15
2023-04-24T01:08:02.046Z,35.00
2023-04-24T01:10:28.949Z,34.88
2023-04-24T01:12:56.044Z,34.54
2023-04-24T01:15:23.277Z,34.48
2023-04-24T01:17:51.190Z,34.21
2023-04-24T01:20:18.318Z,34.14
2023-04-24T01:22:45.548Z,34.08
2023-04-24T01:25:12.626Z,33.95
2023-04-24T01:27:39.547Z,34.01
2023-04-24T01:30:08.222Z,34.07
2023-04-24T01:32:35.422Z,33.98
2023-04-24T01:35:02.840Z,33.93
2023-04-24T01:37:29.809Z,33.92
2023-04-24T01:39:57.144Z,33.98
2023-04-24T01:42:26.010Z,34.07
2023-04-24T01:44:52.989Z,34.16
2023-04-24T01:47:19.933Z,34.36
2023-04-24T01:49:47.024Z,34.43
2023-04-24T01:52:13.924Z,34.59
2023-04-24T01:54:41.278Z,34.67
2023-04-24T01:57:08.228Z,34.78
2023-04-24T01:59:35.170Z,34.86
2023-04-24T02:02:02.482Z,35.20
2023-04-24T02:04:29.396Z,35.44
2023-04-24T02:06:56.569Z,35.36
2023-04-24T02:09:24.936Z,35.41
2023-04-24T02:11:51.871Z,35.41
2023-04-24T02:14:18.818Z,35.40
2023-04-24T02:16:46.082Z,35.48
2023-04-24T02:19:13.053Z,35.50
2023-04-24T02:21:40.059Z,35.48
2023-04-24T02:24:09.253Z,35.31
2023-04-24T02:26:36.335Z,35.47
2023-04-24T02:29:03.352Z,35.41
2023-04-24T02:33:04.645Z,37.72
2023-04-24T02:35:31.915Z,36.12
2023-04-24T02:37:59.020Z,35.96
2023-04-24T02:40:25.871Z,35.87
2023-04-24T02:42:52.895Z,35.94
2023-04-24T02:45:19.861Z,36.03
2023-04-24T02:47:46.849Z,36.07
2023-04-24T02:50:13.684Z,36.10
2023-04-24T02:52:40.482Z,36.24
2023-04-24T02:55:09.167Z,36.36
2023-04-24T02:57:36.538Z,36.52
2023-04-24T03:00:04.489Z,36.56
2023-04-24T03:02:31.630Z,36.65
2023-04-24T03:04:58.603Z,36.69
2023-04-24T03:07:25.847Z,36.82
2023-04-24T03:09:52.635Z,36.85
2023-04-24T03:12:19.635Z,36.64
2023-04-24T03:14:46.468Z,36.56
2023-04-24T03:17:13.637Z,36.36
2023-04-24T03:19:40.967Z,36.33
2023-04-24T03:22:10.403Z,36.22
2023-04-24T03:24:37.555Z,35.76
2023-04-24T03:27:05.040Z,34.98
2023-04-24T03:29:56.719Z,34.41
2023-04-24T03:32:28.244Z,34.16
2023-04-24T03:34:55.444Z,33.66
2023-04-24T03:37:22.382Z,33.59
2023-04-24T03:39:56.662Z,33.32
2023-04-24T03:42:24.675Z,32.84
2023-04-24T03:44:55.827Z,32.52
2023-04-24T03:47:25.444Z,32.45
2023-04-24T03:49:53.425Z,32.55
2023-04-24T03:52:20.570Z,32.63
2023-04-24T03:54:47.825Z,32.66
2023-04-24T03:57:14.746Z,32.63
2023-04-24T03:59:46.712Z,32.95
2023-04-24T04:02:17.643Z,33.26
2023-04-24T04:04:44.933Z,33.55
2023-04-24T04:07:12.515Z,33.84
2023-04-24T04:09:39.541Z,34.12
2023-04-24T04:12:06.521Z,33.96
2023-04-24T04:14:33.572Z,33.98
2023-04-24T04:17:00.669Z,33.93
2023-04-24T04:19:27.871Z,33.83
2023-04-24T04:21:57.348Z,33.68
2023-04-24T04:24:39.200Z,33.60
2023-04-24T04:27:06.899Z,33.65
2023-04-24T04:29:45.487Z,33.57
2023-04-24T04:32:13.952Z,33.55
2023-04-24T04:34:41.446Z,33.45
2023-04-24T04:37:09.362Z,33.26
2023-04-24T04:40:10.836Z,33.16
2023-04-24T04:42:41.568Z,33.22
2023-04-24T04:45:12.857Z,32.86
2023-04-24T04:47:52.483Z,31.21
2023-04-24T04:50:20.678Z,30.51
2023-04-24T04:52:47.926Z,30.07
2023-04-24T04:55:21.497Z,29.63
2023-04-24T04:58:10.271Z,29.62
2023-04-24T05:00:38.590Z,29.68
2023-04-24T05:03:21.078Z,29.68
2023-04-24T05:05:52.642Z,29.99
2023-04-24T05:08:27.260Z,30.27
2023-04-24T05:10:56.153Z,30.35
2023-04-24T05:13:35.506Z,29.64
2023-04-24T05:16:08.119Z,30.04
2023-04-24T05:18:35.538Z,30.71
2023-04-24T05:21:02.995Z,31.33
2023-04-24T05:23:30.362Z,31.73
2023-04-24T05:25:57.612Z,31.84
2023-04-24T05:28:24.570Z,31.55
2023-04-24T05:31:02.310Z,31.70
2023-04-24T05:33:29.804Z,32.17
2023-04-24T05:35:56.778Z,32.65
2023-04-24T05:38:23.905Z,32.99
2023-04-24T05:40:50.909Z,33.28
2023-04-24T05:43:17.800Z,33.25
2023-04-24T05:45:44.823Z,33.59
2023-04-24T05:48:11.710Z,33.70
2023-04-24T05:50:38.634Z,33.51
2023-04-24T05:53:08.185Z,32.96
2023-04-24T05:55:37.051Z,31.99
2023-04-24T05:58:04.184Z,31.83
2023-04-24T06:00:31.384Z,31.25
2023-04-24T06:03:01.718Z,30.77
2023-04-24T06:05:29.048Z,30.57
2023-04-24T06:07:56.181Z,30.39
2023-04-24T06:10:24.563Z,30.14
2023-04-24T06:12:52.110Z,29.66
2023-04-24T06:15:19.171Z,29.39
2023-04-24T06:18:06.085Z,28.62
2023-04-24T06:20:33.383Z,28.34
2023-04-24T06:23:02.220Z,28.09
2023-04-24T06:25:29.168Z,28.12
2023-04-24T06:27:56.804Z,28.09
2023-04-24T06:30:23.784Z,28.03
2023-04-24T06:32:51.076Z,27.69
2023-04-24T06:35:18.115Z,27.43
2023-04-24T06:37:45.023Z,26.62
2023-04-24T06:40:12.276Z,25.06
2023-04-24T06:42:39.259Z,24.16
2023-04-24T06:45:09.278Z,22.99
2023-04-24T06:47:36.191Z,22.31
2023-04-24T06:50:03.559Z,21.24
2023-04-24T06:52:33.923Z,20.70
2023-04-24T06:55:02.537Z,20.62
2023-04-24T06:57:30.326Z,19.96
2023-04-24T06:59:57.380Z,19.81
2023-04-24T07:02:24.647Z,19.25
2023-04-24T07:04:51.831Z,18.01
2023-04-24T07:07:18.755Z,16.66
2023-04-24T07:09:46.729Z,15.85
2023-04-24T07:12:14.608Z,15.84
2023-04-24T07:14:41.878Z,15.43
2023-04-24T07:17:08.795Z,15.98
2023-04-24T07:19:38.793Z,16.51
2023-04-24T07:22:05.747Z,16.79
2023-04-24T07:24:35.767Z,17.18
2023-04-24T07:27:02.840Z,16.64
2023-04-24T07:29:29.855Z,15.92
2023-04-24T07:31:57.966Z,15.69
2023-04-24T07:34:25.407Z,15.51
2023-04-24T07:36:52.260Z,15.57
2023-04-24T07:39:19.587Z,16.03
2023-04-24T07:41:46.556Z,16.27
2023-04-24T07:44:13.582Z,16.16
2023-04-24T07:46:41.232Z,16.18
2023-04-24T07:49:13.592Z,16.52
2023-04-24T07:51:42.606Z,16.81
2023-04-24T07:54:10.082Z,16.78
2023-04-24T07:56:40.061Z,17.20
2023-04-24T07:59:07.672Z,16.59
2023-04-24T08:01:34.554Z,17.00
2023-04-24T08:04:02.181Z,17.79
2023-04-24T08:06:31.806Z,17.28
2023-04-24T08:09:00.644Z,17.47
2023-04-24T08:11:27.916Z,17.63
2023-04-24T08:13:56.068Z,17.73
2023-04-24T08:16:25.267Z,17.93
2023-04-24T08:18:52.759Z,18.19
2023-04-24T08:21:20.130Z,17.80
2023-04-24T08:23:46.962Z,17.17
2023-04-24T08:26:14.522Z,17.53
2023-04-24T08:28:41.413Z,17.48
2023-04-24T08:31:08.449Z,17.88
2023-04-24T08:33:36.185Z,18.85
2023-04-24T08:36:04.257Z,19.14
2023-04-24T08:38:35.346Z,18.27
2023-04-24T08:41:02.493Z,17.32
2023-04-24T08:43:29.500Z,17.21
2023-04-24T08:45:57.639Z,17.33
2023-04-24T08:48:30.927Z,17.70
2023-04-24T08:50:59.835Z,18.33
2023-04-24T08:53:27.213Z,18.12
2023-04-24T08:55:55.199Z,18.29
2023-04-24T08:58:22.052Z,18.22
2023-04-24T09:00:49.375Z,18.22
2023-04-24T09:03:17.546Z,18.00
2023-04-24T09:05:48.707Z,17.84
2023-04-24T09:08:15.796Z,17.94
2023-04-24T09:10:42.822Z,17.59
2023-04-24T09:13:13.031Z,17.62
2023-04-24T09:15:41.083Z,17.73
2023-04-24T09:18:08.011Z,17.33
2023-04-24T09:20:37.334Z,17.49
2023-04-24T09:23:04.589Z,17.42
2023-04-24T09:25:35.415Z,17.30
2023-04-24T09:28:03.861Z,17.49
2023-04-24T09:30:31.073Z,17.54
2023-04-24T09:33:16.793Z,17.56
2023-04-24T09:35:50.149Z,17.62
2023-04-24T09:38:17.199Z,17.46
2023-04-24T09:40:44.179Z,17.59
2023-04-24T09:43:14.096Z,17.42
2023-04-24T09:45:41.227Z,17.75
2023-04-24T09:48:11.916Z,17.84
2023-04-24T09:50:39.099Z,17.92
2023-04-24T09:53:09.874Z,17.86
2023-04-24T09:55:41.130Z,18.02
2023-04-24T09:58:09.015Z,18.19
2023-04-24T10:00:36.108Z,18.16
2023-04-24T10:03:04.599Z,18.33
2023-04-24T10:05:33.883Z,18.07
2023-04-24T10:08:05.647Z,18.01
2023-04-24T10:10:33.517Z,17.97
2023-04-24T10:13:01.718Z,18.15
2023-04-24T10:15:29.156Z,18.92
2023-04-24T10:17:56.218Z,18.98
2023-04-24T10:20:24.779Z,18.65
2023-04-24T10:22:55.018Z,18.70
2023-04-24T10:25:23.477Z,19.26
2023-04-24T10:27:51.549Z,19.23
2023-04-24T10:30:19.657Z,18.96
2023-04-24T10:32:47.066Z,18.97
2023-04-24T10:35:16.135Z,18.41
2023-04-24T10:37:57.679Z,19.28
2023-04-24T10:40:35.298Z,19.56
2023-04-24T10:43:10.829Z,19.19
2023-04-24T10:45:38.366Z,19.51
2023-04-24T10:48:07.694Z,19.17
2023-04-24T10:50:46.241Z,20.03
2023-04-24T10:53:15.879Z,19.37
2023-04-24T10:55:51.491Z,18.37
2023-04-24T10:58:23.237Z,18.49
2023-04-24T11:00:58.506Z,18.47
2023-04-24T11:03:30.291Z,18.68
2023-04-24T11:06:09.655Z,18.39
2023-04-24T11:08:44.355Z,18.71
2023-04-24T11:11:16.487Z,18.11
2023-04-24T11:13:56.032Z,18.64
2023-04-24T11:16:40.507Z,18.66
2023-04-24T11:19:20.300Z,18.69
2023-04-24T11:21:47.174Z,18.55
2023-04-24T11:24:26.805Z,18.93
2023-04-24T11:27:00.187Z,19.16
2023-04-24T11:29:42.435Z,18.97
2023-04-24T11:32:34.857Z,19.08
2023-04-24T11:35:06.198Z,19.15
2023-04-24T11:37:43.987Z,19.11
2023-04-24T11:40:18.547Z,19.09
2023-04-24T11:42:46.189Z,18.97
2023-04-24T11:45:22.448Z,18.89
2023-04-24T11:47:50.327Z,19.19
2023-04-24T11:50:19.070Z,19.35
2023-04-24T11:52:47.977Z,19.41
2023-04-24T11:55:14.837Z,19.39
2023-04-24T11:57:48.996Z,19.33
2023-04-24T12:00:20.493Z,19.59
2023-04-24T12:02:48.338Z,19.53
2023-04-24T12:05:27.341Z,19.53
2023-04-24T12:07:54.969Z,19.29
2023-04-24T12:10:27.343Z,19.37
2023-04-24T12:12:54.895Z,19.13
2023-04-24T12:15:22.148Z,19.11
2023-04-24T12:17:49.282Z,18.79
2023-04-24T12:20:16.358Z,18.78
2023-04-24T12:22:47.820Z,18.78
2023-04-24T12:25:19.173Z,19.01
2023-04-24T12:27:46.646Z,18.77
2023-04-24T12:30:15.451Z,18.55
2023-04-24T12:32:52.920Z,18.35
2023-04-24T12:35:21.566Z,18.16
2023-04-24T12:37:48.484Z,18.08
2023-04-24T12:40:15.599Z,18.11
2023-04-24T12:42:44.355Z,17.73
2023-04-24T12:45:13.208Z,17.69
2023-04-24T12:47:41.130Z,18.38
2023-04-24T12:50:15.613Z,18.74
2023-04-24T12:52:43.127Z,19.20
2023-04-24T12:55:10.438Z,19.17
2023-04-24T12:57:38.594Z,18.34
2023-04-24T13:00:07.104Z,18.30
2023-04-24T13:02:35.183Z,17.60
2023-04-24T13:05:02.253Z,17.27
2023-04-24T13:07:29.183Z,17.93
2023-04-24T13:09:56.762Z,18.51
2023-04-24T13:12:25.102Z,18.96
2023-04-24T13:14:52.290Z,19.08
2023-04-24T13:17:19.153Z,18.83
2023-04-24T13:19:46.699Z,18.76
2023-04-24T13:22:13.891Z,18.18
2023-04-24T13:24:43.769Z,18.02
2023-04-24T13:27:11.148Z,17.82
2023-04-24T13:29:38.545Z,18.13
2023-04-24T13:32:05.784Z,18.09
2023-04-24T13:34:32.836Z,18.01
2023-04-24T13:36:59.880Z,17.75
2023-04-24T13:39:27.205Z,18.11
2023-04-24T13:41:54.986Z,18.45
2023-04-24T13:44:22.721Z,18.97
2023-04-24T13:46:50.483Z,19.23
2023-04-24T13:49:17.533Z,19.52
2023-04-24T13:51:44.586Z,19.91
2023-04-24T13:54:11.520Z,20.30
2023-04-24T13:56:38.493Z,20.48
2023-04-24T13:59:05.617Z,20.63
2023-04-24T14:01:32.474Z,20.78
2023-04-24T14:03:59.591Z,21.06
2023-04-24T14:06:27.084Z,21.16
2023-04-24T14:08:53.929Z,21.18
2023-04-24T14:11:21.188Z,21.17
2023-04-24T14:13:48.224Z,21.43
2023-04-24T14:16:28.546Z,21.42
2023-04-24T14:18:56.454Z,20.98
2023-04-24T14:21:26.482Z,21.04
2023-04-24T14:23:53.257Z,20.86
2023-04-24T14:26:20.789Z,20.69
2023-04-24T14:28:47.874Z,20.87
2023-04-24T14:31:14.924Z,20.70
2023-04-24T14:33:41.933Z,20.62
2023-04-24T14:36:08.981Z,20.52
2023-04-24T14:38:36.227Z,20.48
2023-04-24T14:41:11.292Z,20.50
2023-04-24T14:43:41.540Z,20.92
2023-04-24T14:46:08.436Z,20.39
2023-04-24T14:50:57.005Z,21.38
2023-04-24T14:53:23.852Z,20.54
2023-04-24T14:55:50.936Z,20.21
2023-04-24T14:58:17.727Z,20.09
2023-04-24T15:00:44.647Z,20.08
2023-04-24T15:03:11.990Z,20.06
2023-04-24T15:05:39.372Z,20.40
2023-04-24T15:08:06.864Z,20.14
2023-04-24T15:10:34.225Z,19.94
2023-04-24T15:13:01.427Z,20.12
2023-04-24T15:15:28.315Z,20.22
2023-04-24T15:17:55.305Z,20.23
2023-04-24T15:20:22.207Z,20.33
2023-04-24T15:22:49.009Z,20.21
2023-04-24T15:25:16.132Z,20.03
2023-04-24T15:27:44.283Z,20.40
2023-04-24T15:30:12.032Z,20.71
2023-04-24T15:32:39.579Z,20.91
2023-04-24T15:35:09.041Z,20.78
2023-04-24T15:37:39.258Z,20.76
2023-04-24T15:40:08.323Z,20.75
2023-04-24T15:42:36.313Z,20.86
2023-04-24T15:45:04.622Z,20.86
2023-04-24T15:47:31.677Z,20.86
2023-04-24T15:49:58.760Z,20.66
2023-04-24T15:52:25.993Z,20.61
2023-04-24T15:54:53.194Z,20.92
2023-04-24T15:57:20.001Z,21.25
2023-04-24T15:59:46.813Z,21.23
2023-04-24T16:02:19.682Z,21.17
2023-04-24T16:04:48.368Z,21.27
2023-04-24T16:07:15.801Z,21.49
2023-04-24T16:09:42.826Z,21.62
2023-04-24T16:12:10.666Z,21.88
2023-04-24T16:14:38.491Z,21.85
2023-04-24T16:17:05.550Z,22.48
2023-04-24T16:19:34.232Z,23.54
2023-04-24T16:22:01.421Z,23.12
2023-04-24T16:24:28.344Z,22.27
2023-04-24T16:26:56.187Z,22.05
2023-04-24T16:29:23.139Z,21.96
2023-04-24T16:31:50.874Z,21.96
2023-04-24T16:34:18.151Z,21.99
2023-04-24T16:36:45.505Z,21.85
2023-04-24T16:39:13.321Z,21.91
2023-04-24T16:41:40.645Z,21.79
2023-04-24T16:44:07.779Z,21.78
2023-04-24T16:46:35.436Z,21.79
2023-04-24T16:49:02.595Z,21.93
2023-04-24T16:51:29.647Z,22.05
2023-04-24T16:53:56.601Z,22.10
2023-04-24T16:56:24.391Z,22.26
2023-04-24T16:58:51.599Z,22.28
2023-04-24T17:01:18.626Z,22.47
2023-04-24T17:03:46.946Z,22.74
2023-04-24T17:06:14.103Z,22.78
2023-04-24T17:08:41.051Z,22.97
2023-04-24T17:11:08.092Z,23.33
2023-04-24T17:13:35.031Z,23.36
2023-04-24T17:16:02.114Z,23.51
2023-04-24T17:18:29.142Z,23.89
2023-04-24T17:20:56.279Z,23.81
2023-04-24T17:23:23.328Z,24.11
2023-04-24T17:25:50.151Z,24.28
2023-04-24T17:28:32.814Z,24.35
2023-04-24T17:30:59.870Z,24.56
2023-04-24T17:33:30.792Z,24.60
2023-04-24T17:36:04.262Z,24.59
2023-04-24T17:38:31.434Z,24.66
2023-04-24T17:40:58.625Z,24.75
2023-04-24T17:43:26.042Z,24.87
2023-04-24T17:45:56.111Z,25.12
2023-04-24T17:48:23.132Z,25.13
2023-04-24T17:50:50.162Z,25.21
2023-04-24T17:53:18.870Z,25.41
2023-04-24T17:55:46.705Z,25.78
2023-04-24T17:58:13.707Z,26.05
2023-04-24T18:00:41.030Z,26.33
2023-04-24T18:03:08.848Z,26.15
2023-04-24T18:05:36.971Z,26.17
2023-04-24T18:08:04.173Z,26.29
2023-04-24T18:10:32.177Z,26.91
2023-04-24T18:12:59.547Z,27.10
2023-04-24T18:15:27.330Z,27.38
2023-04-24T18:17:54.313Z,27.43
2023-04-24T18:20:21.269Z,27.51
2023-04-24T18:22:48.493Z,27.86
2023-04-24T18:25:15.916Z,28.10
2023-04-24T18:27:42.737Z,28.15
2023-04-24T18:30:13.728Z,28.26
2023-04-24T18:32:41.967Z,29.19
2023-04-24T18:35:10.075Z,29.26
2023-04-24T18:37:36.945Z,29.40
2023-04-24T18:40:03.938Z,29.26
2023-04-24T18:42:30.896Z,28.90
2023-04-24T18:45:01.914Z,28.77
2023-04-24T18:47:29.045Z,28.96
2023-04-24T18:49:56.235Z,28.85
2023-04-24T18:52:23.680Z,28.57
2023-04-24T18:54:50.750Z,28.81
2023-04-24T18:57:17.784Z,29.44
2023-04-24T18:59:44.839Z,29.85
2023-04-24T19:02:12.108Z,30.00
2023-04-24T19:04:39.248Z,30.02
2023-04-24T19:07:06.198Z,29.92
2023-04-24T19:09:33.786Z,29.86
2023-04-24T19:12:02.030Z,30.22
2023-04-24T19:14:28.977Z,30.16
2023-04-24T19:16:55.936Z,30.15
2023-04-24T19:19:23.989Z,29.96
2023-04-24T19:21:50.867Z,29.93
2023-04-24T19:24:19.311Z,29.96
2023-04-24T19:26:46.397Z,29.75
2023-04-24T19:29:13.809Z,29.64
2023-04-24T19:31:40.807Z,29.56
2023-04-24T19:34:07.992Z,29.67
2023-04-24T19:36:34.911Z,29.77
2023-04-24T19:39:01.744Z,29.82
2023-04-24T19:41:28.588Z,29.90
2023-04-24T19:43:55.510Z,30.02
2023-04-24T19:46:23.011Z,30.14
2023-04-24T19:48:50.526Z,30.15
2023-04-24T19:51:18.703Z,30.27
2023-04-24T19:53:46.018Z,30.34
2023-04-24T19:56:13.165Z,30.35
2023-04-24T19:58:40.256Z,30.56
2023-04-24T20:01:07.090Z,30.74
2023-04-24T20:03:34.714Z,30.85
2023-04-24T20:06:02.111Z,30.75
2023-04-24T20:08:29.184Z,30.72
2023-04-24T20:10:58.336Z,30.89
2023-04-24T20:13:28.200Z,30.78
2023-04-24T20:15:55.427Z,31.03
2023-04-24T20:18:22.910Z,31.23
2023-04-24T20:20:49.922Z,31.37
2023-04-24T20:23:17.533Z,31.74
2023-04-24T20:25:44.363Z,32.27
2023-04-24T20:28:11.406Z,32.44
2023-04-24T20:30:38.274Z,32.44
2023-04-24T20:33:05.387Z,32.55
2023-04-24T20:35:32.486Z,32.48
2023-04-24T20:37:59.792Z,32.41
2023-04-24T20:40:28.285Z,32.32
2023-04-24T20:42:56.771Z,32.34
2023-04-24T20:45:24.545Z,32.23
2023-04-24T20:47:51.398Z,32.26
2023-04-24T20:50:19.033Z,32.20
2023-04-24T20:52:46.094Z,32.25
2023-04-24T20:55:13.184Z,32.36
2023-04-24T20:57:40.188Z,32.46
2023-04-24T21:00:08.943Z,32.43
2023-04-24T21:02:35.994Z,32.37
2023-04-24T21:05:04.524Z,32.51
2023-04-24T21:07:31.500Z,32.57
2023-04-24T21:09:58.513Z,32.68
2023-04-24T21:12:25.461Z,32.85
2023-04-24T21:14:52.341Z,33.09
2023-04-24T21:17:19.306Z,33.10
2023-04-24T21:19:46.287Z,32.80
2023-04-24T21:22:13.089Z,32.60
2023-04-24T21:24:40.008Z,32.50
2023-04-24T21:27:07.759Z,32.53
2023-04-24T21:29:36.017Z,32.43
2023-04-24T21:32:03.522Z,32.56
2023-04-24T21:34:30.684Z,32.66
2023-04-24T21:36:57.575Z,32.70
2023-04-24T21:39:25.038Z,32.83
2023-04-24T21:41:52.145Z,32.69
2023-04-24T21:44:19.045Z,32.68
2023-04-24T21:46:46.093Z,32.78
2023-04-24T21:49:13.085Z,32.67
2023-04-24T21:51:39.977Z,32.55
2023-04-24T21:54:06.859Z,32.56
2023-04-24T21:56:33.786Z,32.70
2023-04-24T21:59:00.698Z,32.64
2023-04-24T22:01:27.696Z,32.71
2023-04-24T22:03:54.879Z,32.67
2023-04-24T22:06:22.326Z,32.66
2023-04-24T22:08:49.226Z,32.74
2023-04-24T22:11:26.767Z,32.72
2023-04-24T22:13:55.216Z,32.71
2023-04-24T22:16:24.253Z,32.70
2023-04-24T22:18:55.566Z,32.71
2023-04-24T22:21:23.127Z,32.74
2023-04-24T22:23:50.518Z,32.61
2023-04-24T22:26:17.782Z,32.56
2023-04-24T22:28:46.520Z,32.59
2023-04-24T22:31:14.723Z,32.75
2023-04-24T22:33:42.390Z,32.70
2023-04-24T22:36:09.701Z,32.66
2023-04-24T22:38:36.743Z,32.62
2023-04-24T22:41:03.804Z,32.69
2023-04-24T22:43:31.992Z,32.73
2023-04-24T22:45:58.835Z,32.74
2023-04-24T22:48:26.218Z,32.73
2023-04-24T22:50:53.259Z,32.74
2023-04-24T22:53:20.261Z,32.73
2023-04-24T22:55:47.313Z,32.61
2023-04-24T22:58:14.155Z,32.77
2023-04-24T23:00:41.152Z,32.88
2023-04-24T23:03:08.459Z,32.97
2023-04-24T23:05:35.720Z,33.05
2023-04-24T23:08:02.623Z,33.09
2023-04-24T23:10:29.551Z,33.24
2023-04-24T23:12:56.450Z,33.19
2023-04-24T23:15:23.412Z,33.25
2023-04-24T23:17:50.485Z,33.24
2023-04-24T23:20:17.542Z,33.28
2023-04-24T23:22:44.461Z,33.33
2023-04-24T23:25:11.369Z,33.48
2023-04-24T23:27:38.291Z,33.51
2023-04-24T23:30:07.046Z,33.44
2023-04-24T23:32:34.109Z,33.61
2023-04-24T23:35:01.125Z,33.58
2023-04-24T23:37:28.180Z,33.58
2023-04-24T23:39:55.144Z,33.65
2023-04-24T23:42:22.082Z,33.65
2023-04-24T23:44:49.032Z,33.78
2023-04-24T23:47:15.850Z,33.73
2023-04-24T23:49:42.777Z,33.78
2023-04-24T23:52:09.752Z,33.76
2023-04-24T23:54:37.316Z,33.85
2023-04-24T23:57:04.598Z,33.89
2023-04-24T23:59:31.613Z,34.03
